Time;durP1;ratioP1;P1;durP2;ratioP2;P2;SDS_P1;SDS_P2;PMS_P1;PMS_P2;Temp;Humidity;BMP_temperature;BMP_pressure;BME280_temperature;BME280_humidity;BME280_pressure;Samples;Min_cycle;Max_cycle;Signal;HPM_P1;HPM_P2
2022/08/07 00:01:58;;;;;;;6.13;2.30;;;12.30;61.50;;;;;;4141904;28;20040;-86
2022/08/07 00:04:00;;;;;;;4.70;2.20;;;12.30;61.60;;;;;;4134330;28;20058;-85
2022/08/07 00:06:01;;;;;;;9.90;2.22;;;12.20;61.80;;;;;;4137518;28;20500;-86
2022/08/07 00:08:03;;;;;;;4.45;2.22;;;12.10;61.90;;;;;;4121294;28;20029;-86
2022/08/07 00:10:04;;;;;;;5.05;2.47;;;12.20;62.10;;;;;;4122265;28;20022;-86
2022/08/07 00:12:05;;;;;;;7.30;2.63;;;12.10;62.20;;;;;;4139286;28;20511;-86
2022/08/07 00:14:06;;;;;;;4.78;2.20;;;12.10;62.70;;;;;;4107932;28;20027;-86
2022/08/07 00:16:07;;;;;;;5.07;2.22;;;12.10;62.70;;;;;;4125081;28;20030;-86
2022/08/07 00:18:08;;;;;;;4.38;2.30;;;12.10;62.90;;;;;;4122188;28;20037;-85
2022/08/07 00:20:09;;;;;;;4.05;2.20;;;12.00;63.00;;;;;;4123360;28;20038;-86
2022/08/07 00:22:10;;;;;;;4.25;2.10;;;12.00;63.30;;;;;;4138024;28;20657;-85
2022/08/07 00:24:11;;;;;;;4.40;2.42;;;12.00;63.30;;;;;;4139466;28;20014;-85
2022/08/07 00:26:11;;;;;;;5.07;2.35;;;12.00;63.50;;;;;;4124595;28;20212;-85
2022/08/07 00:28:13;;;;;;;5.82;2.10;;;12.00;63.60;;;;;;4124864;28;20831;-86
2022/08/07 00:30:14;;;;;;;7.95;2.90;;;11.90;63.70;;;;;;4141655;28;20049;-86
2022/08/07 00:32:15;;;;;;;8.40;2.55;;;11.90;63.80;;;;;;4141430;28;20033;-85
2022/08/07 00:34:16;;;;;;;6.72;2.35;;;11.90;63.90;;;;;;4137172;28;20029;-85
2022/08/07 00:36:16;;;;;;;7.07;2.38;;;11.90;64.10;;;;;;4139134;28;20041;-85
2022/08/07 00:38:17;;;;;;;6.45;2.40;;;11.80;64.30;;;;;;4138601;28;20067;-85
2022/08/07 00:40:18;;;;;;;5.30;2.40;;;11.80;64.40;;;;;;4138665;28;20057;-86
2022/08/07 00:42:20;;;;;;;5.32;2.40;;;11.80;64.60;;;;;;4124087;28;20030;-85
2022/08/07 00:44:21;;;;;;;4.70;2.20;;;11.80;64.60;;;;;;4141558;28;20045;-85
2022/08/07 00:46:22;;;;;;;5.13;2.78;;;11.80;64.80;;;;;;4124287;28;20453;-87
2022/08/07 00:48:22;;;;;;;3.50;2.42;;;11.90;65.00;;;;;;4141898;28;20007;-87
2022/08/07 00:50:23;;;;;;;8.30;2.28;;;11.80;65.00;;;;;;4111016;28;20046;-85
2022/08/07 00:52:24;;;;;;;4.65;2.60;;;11.80;65.00;;;;;;4122617;28;21924;-86
2022/08/07 00:54:25;;;;;;;4.40;2.88;;;11.80;65.30;;;;;;4139342;28;20034;-85
2022/08/07 00:56:27;;;;;;;5.00;2.50;;;11.70;65.40;;;;;;4138222;28;20030;-85
2022/08/07 00:58:28;;;;;;;6.50;3.15;;;11.70;65.40;;;;;;4117443;28;20030;-85
2022/08/07 01:00:29;;;;;;;4.93;2.90;;;11.70;65.40;;;;;;4126175;28;20117;-87
2022/08/07 01:02:30;;;;;;;6.63;3.20;;;11.70;65.50;;;;;;4127539;28;20033;-87
2022/08/07 01:04:33;;;;;;;5.90;2.58;;;11.70;65.70;;;;;;4094539;28;20059;-85
2022/08/07 01:06:34;;;;;;;7.38;3.17;;;11.70;65.80;;;;;;4119778;28;20049;-85
2022/08/07 01:08:36;;;;;;;6.38;2.60;;;11.70;65.80;;;;;;4127799;28;20124;-86
2022/08/07 01:10:38;;;;;;;6.25;2.97;;;11.70;65.80;;;;;;4109149;28;20038;-88
2022/08/07 01:12:41;;;;;;;7.57;3.13;;;11.70;66.00;;;;;;4128735;28;20044;-86
2022/08/07 01:14:42;;;;;;;8.98;3.10;;;11.70;65.90;;;;;;4113169;28;20022;-86
2022/08/07 01:16:43;;;;;;;6.30;2.97;;;11.60;65.90;;;;;;4134641;28;20025;-88
2022/08/07 01:18:44;;;;;;;8.02;3.40;;;11.70;65.90;;;;;;4131532;28;20358;-85
2022/08/07 01:20:51;;;;;;;8.30;3.22;;;11.70;66.10;;;;;;4102534;28;20114;-85
2022/08/07 01:22:53;;;;;;;7.95;3.63;;;11.60;66.00;;;;;;4103915;28;20039;-85
2022/08/07 01:24:54;;;;;;;9.40;3.35;;;11.70;66.20;;;;;;4115230;28;20034;-86
2022/08/07 01:26:55;;;;;;;9.77;3.50;;;11.60;66.30;;;;;;4098463;28;20050;-85
2022/08/07 01:28:57;;;;;;;6.32;3.65;;;11.60;67.10;;;;;;4117856;28;20038;-86
2022/08/07 01:30:59;;;;;;;9.13;3.90;;;11.60;66.70;;;;;;4099299;28;20046;-85
2022/08/07 01:33:00;;;;;;;10.73;3.83;;;11.60;66.70;;;;;;4132203;28;20030;-86
2022/08/07 01:35:01;;;;;;;6.35;3.60;;;11.50;67.00;;;;;;4099538;28;20058;-86
2022/08/07 01:37:03;;;;;;;7.05;3.13;;;11.50;67.10;;;;;;4132806;28;20038;-85
2022/08/07 01:39:03;;;;;;;6.68;3.63;;;11.50;67.10;;;;;;4110286;28;20093;-87
2022/08/07 01:41:08;;;;;;;5.47;3.10;;;11.60;67.30;;;;;;4132449;28;20033;-85
2022/08/07 01:43:09;;;;;;;5.57;3.00;;;11.50;67.20;;;;;;4131934;28;20041;-85
2022/08/07 01:45:10;;;;;;;7.90;3.17;;;11.50;67.30;;;;;;4099680;28;20030;-85
2022/08/07 01:47:12;;;;;;;6.03;3.08;;;11.50;67.50;;;;;;4126279;28;20044;-85
2022/08/07 01:49:13;;;;;;;7.18;3.65;;;11.50;67.40;;;;;;4135615;28;20042;-85
2022/08/07 01:51:18;;;;;;;6.22;3.03;;;11.50;67.40;;;;;;4138543;28;20030;-85
2022/08/07 01:53:22;;;;;;;5.93;3.15;;;11.50;67.40;;;;;;4121036;28;20099;-85
2022/08/07 01:55:43;;;;;;;7.53;3.85;;;11.50;67.30;;;;;;4121022;28;20034;-84
2022/08/07 01:57:46;;;;;;;8.05;3.53;;;11.50;67.60;;;;;;4135157;28;20022;-85
2022/08/07 02:00:08;;;;;;;10.52;4.03;;;11.40;67.40;;;;;;4122604;28;20027;-85
2022/08/07 02:02:19;;;;;;;8.30;3.47;;;11.40;68.10;;;;;;4120604;28;20030;-86
2022/08/07 02:04:34;;;;;;;6.57;3.22;;;11.40;67.80;;;;;;4123494;28;20041;-85
2022/08/07 02:06:39;;;;;;;4.68;3.20;;;11.40;68.50;;;;;;4137123;28;20044;-85
2022/08/07 02:08:43;;;;;;;8.88;3.75;;;11.40;67.70;;;;;;4122397;28;20026;-85
2022/08/07 02:10:47;;;;;;;7.43;4.15;;;11.40;68.00;;;;;;4123580;28;20034;-84
2022/08/07 02:12:49;;;;;;;7.93;3.15;;;11.30;68.30;;;;;;4120300;28;20576;-85
2022/08/07 02:14:53;;;;;;;6.55;3.65;;;11.40;68.20;;;;;;4122592;28;20502;-84
2022/08/07 02:16:55;;;;;;;7.93;3.60;;;11.30;68.20;;;;;;4123167;28;20042;-85
2022/08/07 02:18:56;;;;;;;7.35;4.13;;;11.30;68.30;;;;;;4109060;28;20427;-85
2022/08/07 02:21:00;;;;;;;6.85;3.45;;;11.40;68.50;;;;;;4139321;28;20061;-84
2022/08/07 02:23:04;;;;;;;6.43;3.53;;;11.30;68.50;;;;;;4141759;28;20041;-85
2022/08/07 02:25:07;;;;;;;10.45;3.67;;;11.30;68.50;;;;;;4110917;28;20026;-85
2022/08/07 02:27:10;;;;;;;7.03;3.33;;;11.30;68.50;;;;;;4140341;28;20034;-84
2022/08/07 02:29:11;;;;;;;9.50;3.95;;;11.30;68.70;;;;;;4144332;28;20128;-85
2022/08/07 02:31:13;;;;;;;8.23;4.03;;;11.30;68.70;;;;;;4141426;28;20406;-84
2022/08/07 02:33:15;;;;;;;7.28;3.90;;;11.30;68.90;;;;;;4139954;28;20930;-85
2022/08/07 02:35:18;;;;;;;7.77;3.53;;;11.30;68.90;;;;;;4141855;28;20025;-86
2022/08/07 02:37:20;;;;;;;5.00;3.47;;;11.30;69.20;;;;;;4138845;28;20034;-85
2022/08/07 02:39:23;;;;;;;6.50;3.33;;;11.20;69.10;;;;;;4124955;28;20027;-85
2022/08/07 02:41:25;;;;;;;10.80;3.38;;;11.30;69.30;;;;;;4140512;28;20117;-84
2022/08/07 02:43:27;;;;;;;8.45;3.92;;;11.30;69.30;;;;;;4144628;28;20029;-85
2022/08/07 02:45:30;;;;;;;8.00;3.90;;;11.30;69.50;;;;;;4144892;28;20040;-84
2022/08/07 02:47:31;;;;;;;;;;;11.20;69.50;;;;;;4128431;28;20038;-85
2022/08/07 02:49:32;;;;;;;10.43;3.80;;;11.30;70.60;;;;;;4111638;28;20385;-85
2022/08/07 02:51:36;;;;;;;6.90;3.63;;;11.20;69.50;;;;;;4126253;28;20030;-84
2022/08/07 02:53:39;;;;;;;7.88;4.15;;;11.20;69.40;;;;;;4144528;28;20030;-85
2022/08/07 02:55:46;;;;;;;8.07;3.47;;;11.30;69.60;;;;;;4152830;28;20428;-85
2022/08/07 02:57:48;;;;;;;6.28;3.55;;;11.30;69.70;;;;;;4142028;28;20684;-85
2022/08/07 02:59:51;;;;;;;11.60;3.80;;;11.30;69.80;;;;;;4144012;28;20456;-85
2022/08/07 03:01:53;;;;;;;5.97;3.60;;;11.20;70.00;;;;;;4142532;28;20021;-85
2022/08/07 03:03:56;;;;;;;8.53;3.80;;;11.20;70.00;;;;;;4127147;28;21436;-84
2022/08/07 03:05:58;;;;;;;5.18;3.30;;;11.20;69.90;;;;;;4140688;28;20153;-85
2022/08/07 03:07:58;;;;;;;8.70;4.63;;;11.20;70.30;;;;;;4140631;28;20509;-85
2022/08/07 03:10:00;;;;;;;7.95;3.60;;;11.30;70.50;;;;;;4144021;28;20465;-85
2022/08/07 03:12:04;;;;;;;7.25;3.40;;;11.20;70.40;;;;;;4140307;28;20030;-85
2022/08/07 03:14:05;;;;;;;7.55;4.00;;;11.20;70.40;;;;;;4138837;28;20582;-86
2022/08/07 03:16:06;;;;;;;7.25;3.80;;;11.30;70.50;;;;;;4124861;28;20592;-85
2022/08/07 03:18:07;;;;;;;8.15;3.88;;;11.30;70.80;;;;;;4141916;28;20080;-84
2022/08/07 03:20:09;;;;;;;8.00;3.33;;;11.30;70.70;;;;;;4141723;28;20058;-85
2022/08/07 03:22:11;;;;;;;5.30;3.15;;;11.30;70.50;;;;;;4111242;28;20043;-85
2022/08/07 03:24:11;;;;;;;7.70;3.33;;;11.30;70.60;;;;;;4140590;28;20026;-85
2022/08/07 03:26:17;;;;;;;7.13;3.50;;;11.30;70.70;;;;;;4140234;28;20390;-86
2022/08/07 03:28:19;;;;;;;8.00;3.90;;;11.30;70.70;;;;;;4142142;28;20243;-84
2022/08/07 03:30:21;;;;;;;5.15;3.15;;;11.30;70.70;;;;;;4125072;28;20593;-85
2022/08/07 03:32:30;;;;;;;7.03;3.60;;;11.30;70.70;;;;;;4125287;28;20033;-86
2022/08/07 03:34:31;;;;;;;7.32;3.22;;;11.40;70.90;;;;;;4122867;28;20608;-85
2022/08/07 03:36:33;;;;;;;11.65;3.88;;;11.40;71.60;;;;;;4123428;28;20027;-85
2022/08/07 03:38:35;;;;;;;10.30;3.30;;;11.40;71.00;;;;;;4123399;28;20034;-85
2022/08/07 03:40:36;;;;;;;5.90;3.22;;;11.40;70.90;;;;;;4135106;28;20027;-84
2022/08/07 03:42:38;;;;;;;7.00;3.42;;;11.40;71.00;;;;;;4119828;28;20033;-85
2022/08/07 03:44:39;;;;;;;11.23;3.58;;;11.50;71.10;;;;;;4141033;28;20080;-85
2022/08/07 03:46:40;;;;;;;6.97;3.28;;;11.50;71.20;;;;;;4139300;28;20598;-86
2022/08/07 03:48:42;;;;;;;6.18;3.47;;;11.50;71.30;;;;;;4140284;28;20407;-83
2022/08/07 03:50:44;;;;;;;5.95;3.15;;;11.50;71.30;;;;;;4127452;28;20150;-83
2022/08/07 03:52:48;;;;;;;7.82;3.42;;;11.50;71.30;;;;;;4135908;28;20091;-84
2022/08/07 03:54:49;;;;;;;6.50;3.50;;;11.50;71.20;;;;;;4121493;28;20046;-84
2022/08/07 03:56:52;;;;;;;6.07;3.35;;;11.60;71.30;;;;;;4122284;28;20556;-84
2022/08/07 03:58:53;;;;;;;8.38;3.50;;;11.60;71.20;;;;;;4137620;28;20502;-85
2022/08/07 04:00:56;;;;;;;6.68;3.67;;;11.60;71.30;;;;;;4142686;28;20022;-84
2022/08/07 04:02:58;;;;;;;5.88;3.38;;;11.60;71.30;;;;;;4122025;28;20556;-86
2022/08/07 04:04:59;;;;;;;8.57;3.63;;;11.70;71.30;;;;;;4131427;28;20033;-85
2022/08/07 04:07:00;;;;;;;6.07;3.58;;;11.70;71.40;;;;;;4139925;28;20401;-86
2022/08/07 04:09:01;;;;;;;6.82;3.05;;;11.70;71.40;;;;;;4137373;28;20061;-85
2022/08/07 04:11:03;;;;;;;12.93;3.80;;;11.70;71.30;;;;;;4123126;28;20510;-85
2022/08/07 04:13:06;;;;;;;7.47;3.80;;;11.80;71.20;;;;;;4141587;28;20437;-86
2022/08/07 04:15:08;;;;;;;6.25;3.80;;;11.80;71.10;;;;;;4124029;28;20442;-85
2022/08/07 04:17:10;;;;;;;6.53;3.60;;;11.80;71.00;;;;;;4120130;28;20596;-85
2022/08/07 04:19:11;;;;;;;9.45;3.97;;;11.80;70.90;;;;;;4140887;28;21314;-85
2022/08/07 04:21:22;;;;;;;7.80;3.95;;;11.80;71.00;;;;;;4125203;28;20038;-85
2022/08/07 04:23:24;;;;;;;10.65;3.97;;;11.80;71.10;;;;;;4140916;28;20026;-86
2022/08/07 04:25:25;;;;;;;7.68;3.90;;;11.90;71.10;;;;;;4143012;28;20100;-85
2022/08/07 04:27:26;;;;;;;7.60;3.70;;;11.80;71.00;;;;;;4145396;28;20030;-85
2022/08/07 04:29:27;;;;;;;9.80;3.80;;;12.00;71.20;;;;;;4134521;28;20018;-85
2022/08/07 04:31:28;;;;;;;7.35;3.65;;;11.90;71.20;;;;;;4127928;28;20062;-85
2022/08/07 04:33:29;;;;;;;6.32;3.53;;;11.90;71.20;;;;;;4138806;28;20097;-85
2022/08/07 04:35:33;;;;;;;11.88;4.38;;;11.90;71.30;;;;;;4139373;28;20101;-85
2022/08/07 04:37:34;;;;;;;;;;;11.90;71.60;;;;;;4124129;28;20052;-85
2022/08/07 04:39:35;;;;;;;8.25;3.75;;;12.00;72.00;;;;;;4126191;28;19914;-86
2022/08/07 04:41:36;;;;;;;7.57;4.05;;;12.00;71.30;;;;;;4139438;28;20447;-85
2022/08/07 04:43:38;;;;;;;5.93;3.65;;;12.00;71.50;;;;;;4122412;28;20037;-85
2022/08/07 04:45:54;;;;;;;7.30;4.20;;;12.00;71.40;;;;;;4126520;28;20053;-85
2022/08/07 04:48:28;;;;;;;9.30;4.03;;;12.00;71.80;;;;;;4124480;28;20683;-85
2022/08/07 04:50:51;;;;;;;11.55;4.40;;;12.10;71.90;;;;;;4138197;28;20026;-85
2022/08/07 04:53:00;;;;;;;9.45;3.83;;;12.10;71.60;;;;;;4139926;28;20573;-85
2022/08/07 04:55:22;;;;;;;6.60;4.38;;;12.10;71.80;;;;;;4142414;28;20029;-85
2022/08/07 04:57:31;;;;;;;8.07;3.92;;;12.10;71.90;;;;;;4122040;28;20038;-85
2022/08/07 04:59:53;;;;;;;9.02;4.38;;;12.20;71.80;;;;;;4142786;28;20029;-84
2022/08/07 05:02:26;;;;;;;10.20;4.30;;;12.20;71.80;;;;;;4139694;28;20022;-85
2022/08/07 05:04:41;;;;;;;6.70;4.20;;;12.20;72.20;;;;;;4058969;29;20036;-84
2022/08/07 05:06:52;;;;;;;6.68;4.03;;;12.30;72.10;;;;;;4089816;28;20054;-83
2022/08/07 05:09:07;;;;;;;7.18;4.18;;;12.20;72.60;;;;;;4092533;28;20565;-84
2022/08/07 05:11:09;;;;;;;6.88;4.38;;;12.30;73.00;;;;;;4092251;28;20070;-86
2022/08/07 05:13:18;;;;;;;8.13;4.40;;;12.30;72.70;;;;;;4091324;28;20395;-85
2022/08/07 05:15:23;;;;;;;7.07;4.55;;;12.30;73.10;;;;;;4063234;29;21017;-85
2022/08/07 05:17:26;;;;;;;7.43;4.38;;;12.40;73.30;;;;;;4091657;28;20043;-85
2022/08/07 05:19:34;;;;;;;6.60;4.10;;;12.40;73.50;;;;;;4091030;28;20435;-85
2022/08/07 05:21:37;;;;;;;7.80;3.90;;;12.40;74.10;;;;;;4076104;29;20637;-86
2022/08/07 05:23:59;;;;;;;5.90;3.97;;;12.50;74.50;;;;;;4076049;29;20031;-85
2022/08/07 05:26:02;;;;;;;6.15;3.55;;;12.50;74.20;;;;;;4090750;28;20534;-85
2022/08/07 05:28:05;;;;;;;7.90;3.97;;;12.50;74.20;;;;;;4093260;28;20099;-85
2022/08/07 05:30:06;;;;;;;9.15;4.55;;;12.60;74.40;;;;;;4092698;28;20038;-85
2022/08/07 05:32:08;;;;;;;6.78;3.58;;;12.60;74.40;;;;;;4089977;28;20098;-84
2022/08/07 05:34:14;;;;;;;6.50;3.72;;;12.60;74.40;;;;;;4074610;29;20036;-84
2022/08/07 05:36:15;;;;;;;5.07;3.90;;;12.60;74.50;;;;;;4072197;29;20042;-85
2022/08/07 05:38:18;;;;;;;7.32;4.60;;;12.70;74.50;;;;;;4092913;28;20482;-85
2022/08/07 05:40:20;;;;;;;5.88;3.83;;;12.70;74.60;;;;;;4064730;28;20071;-85
2022/08/07 05:42:21;;;;;;;7.32;3.92;;;12.70;74.60;;;;;;4138837;28;20022;-85
2022/08/07 05:44:23;;;;;;;5.93;3.97;;;12.80;74.70;;;;;;4107696;28;20040;-84
2022/08/07 05:46:24;;;;;;;8.85;4.20;;;12.80;74.80;;;;;;4125051;28;20030;-85
2022/08/07 05:48:27;;;;;;;7.15;3.70;;;12.90;75.00;;;;;;4136211;28;20053;-86
2022/08/07 05:50:29;;;;;;;6.35;3.55;;;12.90;75.00;;;;;;4135849;28;21594;-88
2022/08/07 05:52:31;;;;;;;5.95;3.85;;;12.90;75.00;;;;;;4121013;28;20098;-85
2022/08/07 05:54:32;;;;;;;7.30;4.07;;;13.00;75.10;;;;;;4115614;28;20113;-84
2022/08/07 05:56:35;;;;;;;5.75;3.72;;;13.00;75.10;;;;;;4142923;28;20050;-86
2022/08/07 05:58:37;;;;;;;8.00;3.85;;;13.00;75.30;;;;;;4139634;28;20038;-86
2022/08/07 06:00:39;;;;;;;7.63;3.90;;;13.10;75.30;;;;;;4106688;28;20027;-85
2022/08/07 06:02:44;;;;;;;6.05;3.80;;;13.10;75.20;;;;;;4139486;28;20124;-87
2022/08/07 06:04:59;;;;;;;7.97;4.10;;;13.20;75.30;;;;;;4137685;28;20115;-85
2022/08/07 06:07:04;;;;;;;7.78;4.00;;;13.20;75.50;;;;;;4121707;28;20025;-85
2022/08/07 06:09:06;;;;;;;6.32;3.92;;;13.30;75.20;;;;;;4106510;28;20050;-85
2022/08/07 06:11:07;;;;;;;8.07;4.60;;;13.30;75.20;;;;;;4120982;28;20038;-86
2022/08/07 06:13:08;;;;;;;9.48;4.30;;;13.30;75.20;;;;;;4124408;28;21047;-85
2022/08/07 06:15:12;;;;;;;7.10;4.60;;;13.40;75.30;;;;;;4124780;28;20031;-85
2022/08/07 06:17:14;;;;;;;5.30;3.70;;;13.40;75.20;;;;;;4144490;28;20022;-85
2022/08/07 06:19:16;;;;;;;7.47;3.83;;;13.50;75.30;;;;;;4126382;28;20057;-85
2022/08/07 06:21:20;;;;;;;7.63;4.00;;;13.50;75.20;;;;;;4124407;28;20025;-84
2022/08/07 06:23:42;;;;;;;8.10;3.97;;;13.50;75.20;;;;;;4144588;28;20109;-86
2022/08/07 06:25:44;;;;;;;6.13;3.88;;;13.60;75.60;;;;;;4100163;23;20063;-80
2022/08/07 06:27:44;;;;;;;6.72;3.92;;;13.60;75.20;;;;;;4092789;28;20035;-82
2022/08/07 06:29:45;;;;;;;7.13;4.03;;;13.60;75.10;;;;;;4095570;28;20519;-81
2022/08/07 06:31:46;;;;;;;4.75;3.45;;;13.70;75.20;;;;;;4097361;28;20027;-83
2022/08/07 06:33:47;;;;;;;7.07;3.75;;;13.80;75.20;;;;;;4087016;28;20047;-83
2022/08/07 06:35:48;;;;;;;7.07;3.92;;;13.80;75.20;;;;;;4075967;29;20028;-81
2022/08/07 06:37:48;;;;;;;10.43;4.45;;;13.80;75.10;;;;;;4068431;29;20055;-80
2022/08/07 06:39:49;;;;;;;6.60;3.72;;;13.80;75.70;;;;;;4086749;28;20023;-80
2022/08/07 06:42:00;;;;;;;7.40;4.15;;;13.90;75.10;;;;;;4086292;28;20119;-81
2022/08/07 06:44:04;;;;;;;5.45;3.42;;;13.90;75.10;;;;;;4088930;28;20039;-81
2022/08/07 06:46:05;;;;;;;9.60;4.50;;;14.00;75.00;;;;;;4072942;29;20027;-81
2022/08/07 06:48:05;;;;;;;7.72;4.07;;;14.00;74.90;;;;;;4079424;28;20123;-81
2022/08/07 06:50:07;;;;;;;7.60;3.97;;;14.00;74.90;;;;;;4086191;28;20035;-80
2022/08/07 06:52:10;;;;;;;11.57;4.38;;;14.10;74.80;;;;;;4085624;28;22148;-81
2022/08/07 06:54:12;;;;;;;8.93;4.30;;;14.10;74.60;;;;;;4085008;28;20032;-81
2022/08/07 06:56:15;;;;;;;7.55;3.97;;;14.10;74.50;;;;;;4083561;28;20042;-80
2022/08/07 06:58:16;;;;;;;7.43;4.20;;;14.10;74.50;;;;;;4070011;29;20116;-81
2022/08/07 07:00:19;;;;;;;8.45;4.13;;;14.20;74.50;;;;;;4080244;28;20110;-81
2022/08/07 07:02:21;;;;;;;7.10;4.07;;;14.20;74.70;;;;;;4066980;29;20067;-82
2022/08/07 07:04:23;;;;;;;10.47;3.83;;;14.30;75.00;;;;;;4099167;28;20596;-81
2022/08/07 07:06:24;;;;;;;7.47;3.85;;;14.30;75.00;;;;;;4099223;28;20069;-80
2022/08/07 07:08:28;;;;;;;9.48;4.22;;;14.40;75.20;;;;;;4084480;28;20435;-82
2022/08/07 07:10:34;;;;;;;7.90;4.20;;;14.50;75.20;;;;;;4065996;29;20035;-80
2022/08/07 07:12:54;;;;;;;9.50;4.22;;;14.50;75.20;;;;;;4080592;28;20044;-82
2022/08/07 07:15:06;;;;;;;5.80;3.78;;;14.60;75.30;;;;;;4064734;29;20043;-81
2022/08/07 07:17:14;;;;;;;7.90;4.40;;;14.70;75.10;;;;;;4071638;29;20055;-81
2022/08/07 07:19:22;;;;;;;7.00;3.65;;;14.80;75.00;;;;;;4085913;28;20023;-81
2022/08/07 07:21:34;;;;;;;6.82;3.67;;;14.90;74.80;;;;;;4071018;29;20031;-80
2022/08/07 07:23:38;;;;;;;7.45;3.63;;;15.00;74.80;;;;;;4085432;28;20047;-91
2022/08/07 07:25:40;;;;;;;7.80;3.92;;;15.10;74.80;;;;;;4064565;29;20042;-82
2022/08/07 07:28:11;;;;;;;7.53;4.10;;;15.20;74.50;;;;;;4083427;28;20488;-81
2022/08/07 07:30:12;;;;;;;9.65;3.45;;;15.30;73.70;;;;;;4075963;28;20043;-84
2022/08/07 07:32:14;;;;;;;7.35;4.28;;;15.40;73.70;;;;;;4083641;28;21171;-84
2022/08/07 07:34:43;;;;;;;9.07;4.03;;;15.50;73.50;;;;;;4082491;28;20034;-90
2022/08/07 07:36:53;;;;;;;7.03;3.97;;;15.70;73.30;;;;;;4103624;28;20038;-90
2022/08/07 07:39:01;;;;;;;9.48;4.05;;;15.80;72.90;;;;;;4094280;28;20062;-90
2022/08/07 07:41:05;;;;;;;6.93;3.97;;;16.00;72.30;;;;;;4091525;28;20784;-90
2022/08/07 07:43:07;;;;;;;8.05;4.03;;;16.00;71.70;;;;;;4068586;29;20074;-91
2022/08/07 07:45:13;;;;;;;9.93;4.03;;;16.20;71.30;;;;;;4089123;28;20023;-90
2022/08/07 07:47:17;;;;;;;9.02;3.90;;;16.30;70.70;;;;;;4089406;28;20055;-86
2022/08/07 07:49:19;;;;;;;7.97;3.97;;;16.30;69.80;;;;;;4093695;28;20035;-86
2022/08/07 07:51:21;;;;;;;6.90;3.70;;;16.40;69.60;;;;;;4080142;29;20027;-86
2022/08/07 07:53:23;;;;;;;8.82;4.13;;;16.50;69.20;;;;;;4087869;29;20046;-86
2022/08/07 07:55:26;;;;;;;7.38;3.40;;;16.50;68.80;;;;;;4108115;28;20037;-86
2022/08/07 07:57:27;;;;;;;7.07;3.88;;;16.60;68.40;;;;;;4079245;29;20554;-87
2022/08/07 07:59:29;;;;;;;6.45;3.45;;;16.70;68.40;;;;;;4076830;29;20484;-86
2022/08/07 08:01:34;;;;;;;5.72;3.72;;;16.70;68.30;;;;;;4105615;28;20650;-89
2022/08/07 08:03:38;;;;;;;5.38;3.63;;;16.80;68.10;;;;;;4072787;29;20047;-89
2022/08/07 08:05:41;;;;;;;6.03;3.60;;;17.00;67.50;;;;;;4088191;28;20142;-89
2022/08/07 08:07:43;;;;;;;;;;;17.00;67.00;;;;;;4046732;28;20043;-87
2022/08/07 08:09:49;;;;;;;13.15;3.65;;;17.20;66.30;;;;;;4067279;28;19926;-90
2022/08/07 08:11:53;;;;;;;9.32;3.30;;;17.30;66.30;;;;;;4072844;28;20654;-89
2022/08/07 08:13:53;;;;;;;5.35;3.38;;;17.30;65.50;;;;;;4063188;29;20024;-87
2022/08/07 08:16:00;;;;;;;6.53;3.53;;;17.40;65.20;;;;;;4085942;28;20031;-90
2022/08/07 08:18:02;;;;;;;11.30;3.53;;;17.50;64.60;;;;;;4080013;28;20624;-88
2022/08/07 08:20:06;;;;;;;20.67;5.13;;;17.60;64.10;;;;;;4067878;29;20246;-91
2022/08/07 08:27:15;;;;;;;6.43;3.20;;;17.90;62.90;;;;;;4102398;28;20526;-89
2022/08/07 08:29:19;;;;;;;5.38;3.17;;;17.90;62.40;;;;;;4089208;28;20145;-90
2022/08/07 08:31:32;;;;;;;4.78;2.70;;;18.00;61.90;;;;;;4057885;28;20105;-89
2022/08/07 08:33:38;;;;;;;5.55;3.10;;;18.10;60.80;;;;;;4052943;28;20095;-88
2022/08/07 08:35:57;;;;;;;5.95;2.53;;;18.20;60.60;;;;;;4077229;28;20130;-87
2022/08/07 08:38:25;;;;;;;6.22;2.63;;;18.30;60.20;;;;;;4057246;28;20056;-90
2022/08/07 08:40:54;;;;;;;6.70;3.13;;;18.30;59.70;;;;;;4068524;28;20213;-91
2022/08/07 08:43:38;;;;;;;5.80;2.63;;;18.40;59.20;;;;;;4065608;29;20032;-90
2022/08/07 08:46:08;;;;;;;7.18;2.95;;;18.40;59.10;;;;;;4071181;29;20222;-88
2022/08/07 08:49:07;;;;;;;10.60;3.28;;;18.40;58.30;;;;;;4070347;29;20098;-89
2022/08/07 08:51:14;;;;;;;4.90;2.80;;;18.50;58.30;;;;;;4037411;29;20045;-88
2022/08/07 08:53:50;;;;;;;8.45;2.90;;;18.50;58.40;;;;;;4038828;29;20063;-89
2022/08/07 08:55:54;;;;;;;9.63;2.63;;;18.50;58.80;;;;;;3993079;29;20525;-88
2022/08/07 08:58:12;;;;;;;5.50;2.38;;;18.60;58.30;;;;;;4028178;29;20041;-88
2022/08/07 09:00:38;;;;;;;5.85;3.00;;;18.60;58.00;;;;;;4037939;29;20398;-88
2022/08/07 09:03:01;;;;;;;6.25;2.90;;;18.70;58.00;;;;;;4041880;29;20076;-88
2022/08/07 09:05:33;;;;;;;6.75;3.08;;;18.80;57.70;;;;;;4035383;29;20047;-89
2022/08/07 09:07:56;;;;;;;7.53;2.80;;;18.90;57.40;;;;;;4041890;29;20033;-89
2022/08/07 09:10:15;;;;;;;5.30;2.55;;;19.00;57.60;;;;;;4003755;29;20245;-90
2022/08/07 09:12:42;;;;;;;7.88;2.58;;;19.00;56.90;;;;;;4022430;29;20483;-89
2022/08/07 09:15:04;;;;;;;11.90;2.60;;;19.10;56.20;;;;;;3992794;29;20042;-87
2022/08/07 09:17:37;;;;;;;4.80;2.35;;;19.10;56.40;;;;;;3999014;29;20199;-93
2022/08/07 09:19:59;;;;;;;7.05;2.50;;;19.10;55.80;;;;;;3952967;29;20049;-89
2022/08/07 09:28:43;;;;;;;8.05;2.65;;;19.30;55.80;;;;;;3997917;29;20160;-86
2022/08/07 09:31:02;;;;;;;6.15;2.65;;;19.30;54.80;;;;;;4003842;29;20041;-84
2022/08/07 09:33:08;;;;;;;7.63;2.80;;;19.40;54.40;;;;;;3986896;29;20677;-86
2022/08/07 09:35:37;;;;;;;5.00;2.50;;;19.40;54.90;;;;;;3984366;29;20468;-92
2022/08/07 09:38:18;;;;;;;3.97;2.55;;;19.30;54.50;;;;;;3992991;29;20057;-88
2022/08/07 09:41:13;;;;;;;4.78;2.78;;;19.40;54.40;;;;;;3972232;29;20061;-88
2022/08/07 09:43:44;;;;;;;9.57;4.00;;;19.30;54.40;;;;;;3950248;29;20466;-92
2022/08/07 09:46:10;;;;;;;5.28;2.35;;;19.30;54.50;;;;;;3960173;29;20046;-92
2022/08/07 09:48:38;;;;;;;5.97;2.45;;;19.30;54.50;;;;;;3951174;30;20139;-92
2022/08/07 09:51:07;;;;;;;4.85;2.20;;;19.30;54.00;;;;;;3944282;30;20282;-93
2022/08/07 09:53:09;;;;;;;7.88;2.47;;;19.20;53.70;;;;;;3991735;29;20030;-92
2022/08/07 09:55:39;;;;;;;5.32;2.28;;;19.20;53.80;;;;;;3985444;29;20023;-91
2022/08/07 09:58:09;;;;;;;5.03;2.30;;;19.20;53.60;;;;;;3958238;29;20075;-92
2022/08/07 10:00:29;;;;;;;5.43;2.80;;;19.20;53.80;;;;;;3960130;29;20050;-93
2022/08/07 10:03:09;;;;;;;4.63;2.17;;;19.20;53.70;;;;;;4015730;29;20280;-93
2022/08/07 10:05:47;;;;;;;3.90;2.10;;;19.30;53.60;;;;;;4038267;29;20506;-91
2022/08/07 10:08:05;;;;;;;5.93;2.05;;;19.30;52.80;;;;;;4022931;29;20086;-94
2022/08/07 10:10:52;;;;;;;4.55;1.67;;;19.30;52.50;;;;;;4038822;29;20044;-94
2022/08/07 10:13:27;;;;;;;5.88;1.90;;;19.40;52.00;;;;;;4018828;29;20068;-92
2022/08/07 10:16:07;;;;;;;7.78;2.30;;;19.50;51.70;;;;;;4037160;29;20607;-91
2022/08/07 10:18:08;;;;;;;3.22;1.88;;;19.60;51.10;;;;;;4021358;29;20041;-89
2022/08/07 10:20:29;;;;;;;6.20;1.80;;;19.70;51.90;;;;;;4053974;29;20040;-93
2022/08/07 10:23:03;;;;;;;8.18;2.08;;;19.80;51.00;;;;;;4072679;29;20072;-92
2022/08/07 10:25:16;;;;;;;4.43;1.80;;;19.90;50.60;;;;;;4062435;29;20033;-90
2022/08/07 10:27:40;;;;;;;8.95;1.80;;;20.00;49.90;;;;;;4075915;29;20088;-92
2022/08/07 10:29:59;;;;;;;2.58;1.33;;;20.10;48.50;;;;;;4058281;29;20037;-92
2022/08/07 10:32:30;;;;;;;4.40;1.75;;;20.10;48.10;;;;;;4070759;29;20036;-91
2022/08/07 10:34:46;;;;;;;6.47;1.85;;;20.20;47.40;;;;;;4051287;29;20138;-91
2022/08/07 10:37:10;;;;;;;12.32;2.40;;;20.20;46.60;;;;;;4079472;29;20040;-92
2022/08/07 10:39:37;;;;;;;4.85;2.03;;;20.20;47.50;;;;;;4049057;29;20039;-92
2022/08/07 10:41:48;;;;;;;5.32;2.13;;;20.10;47.80;;;;;;4082258;29;20040;-91
2022/08/07 10:44:40;;;;;;;4.15;2.10;;;20.20;48.00;;;;;;4060381;29;20052;-92
2022/08/07 10:46:54;;;;;;;2.83;2.03;;;20.20;47.40;;;;;;4059416;29;20066;-89
2022/08/07 10:49:09;;;;;;;3.10;1.90;;;20.20;48.00;;;;;;4052204;29;20398;-87
2022/08/07 10:51:20;;;;;;;4.95;1.95;;;20.20;48.00;;;;;;4040269;29;20464;-88
2022/08/07 10:53:31;;;;;;;6.22;2.35;;;20.20;47.60;;;;;;4046967;29;20398;-88
2022/08/07 10:55:52;;;;;;;3.00;1.98;;;20.20;47.80;;;;;;4029308;29;20251;-89
2022/08/07 10:58:19;;;;;;;5.85;2.13;;;20.20;48.00;;;;;;4031110;29;20047;-87
2022/08/07 11:00:20;;;;;;;3.58;2.40;;;20.20;47.50;;;;;;4052217;29;20075;-88
2022/08/07 11:02:40;;;;;;;6.03;2.85;;;20.20;47.80;;;;;;4036584;29;20029;-89
2022/08/07 11:05:02;;;;;;;4.38;2.58;;;20.20;47.80;;;;;;4034571;29;20038;-91
2022/08/07 11:07:17;;;;;;;3.40;2.50;;;20.20;48.00;;;;;;4034575;29;20111;-87
2022/08/07 11:09:22;;;;;;;8.07;3.00;;;20.10;48.30;;;;;;4050411;29;20041;-88
2022/08/07 11:11:32;;;;;;;7.90;2.58;;;20.10;49.80;;;;;;4035286;29;20116;-89
2022/08/07 11:13:38;;;;;;;8.18;3.25;;;20.10;49.40;;;;;;4049942;29;20475;-83
2022/08/07 11:15:41;;;;;;;5.45;3.10;;;20.00;50.00;;;;;;4032342;29;20124;-89
2022/08/07 11:17:49;;;;;;;5.55;2.80;;;20.00;50.50;;;;;;4050615;29;20138;-90
2022/08/07 11:19:54;;;;;;;3.95;2.97;;;19.90;50.90;;;;;;4020760;29;20033;-89